createdAt,value
2023-03-10T00:00:38.630Z,26.25
2023-03-10T00:03:05.781Z,26.06
2023-03-10T00:05:32.598Z,26.39
2023-03-10T00:07:59.493Z,24.14
2023-03-10T00:10:26.393Z,25.45
2023-03-10T00:12:53.602Z,29.21
2023-03-10T00:15:20.591Z,27.65
2023-03-10T00:17:50.159Z,25.56
2023-03-10T00:20:17.041Z,24.68
2023-03-10T00:22:43.767Z,25.37
2023-03-10T00:25:11.372Z,27.32
2023-03-10T00:27:38.691Z,27.43
2023-03-10T00:30:05.951Z,24.60
2023-03-10T00:32:36.035Z,27.16
2023-03-10T00:35:05.561Z,25.55
2023-03-10T00:37:32.267Z,27.69
2023-03-10T00:39:59.120Z,26.97
2023-03-10T00:42:26.890Z,28.61
2023-03-10T00:44:53.920Z,29.46
2023-03-10T00:47:22.544Z,27.38
2023-03-10T00:49:50.706Z,25.32
2023-03-10T00:52:17.775Z,26.93
2023-03-10T00:54:44.512Z,25.82
2023-03-10T00:57:11.613Z,25.38
2023-03-10T00:59:50.105Z,26.10
2023-03-10T01:02:21.252Z,25.65
2023-03-10T01:04:48.933Z,27.35
2023-03-10T01:07:15.895Z,26.79
2023-03-10T01:09:43.009Z,26.29
2023-03-10T01:12:10.566Z,27.07
2023-03-10T01:14:37.920Z,24.83
2023-03-10T01:17:05.634Z,25.99
2023-03-10T01:19:32.482Z,24.45
2023-03-10T01:22:01.201Z,26.86
2023-03-10T01:24:27.922Z,27.45
2023-03-10T01:26:55.581Z,25.32
2023-03-10T01:29:22.373Z,25.13
2023-03-10T01:31:49.493Z,26.53
2023-03-10T01:34:16.212Z,26.45
2023-03-10T01:36:42.974Z,27.72
2023-03-10T01:39:10.755Z,28.31
2023-03-10T01:41:39.447Z,29.33
2023-03-10T01:44:13.137Z,26.73
2023-03-10T01:47:02.234Z,25.45
2023-03-10T01:49:38.654Z,24.92
2023-03-10T01:52:20.681Z,25.26
2023-03-10T01:54:54.591Z,24.79
2023-03-10T01:57:25.920Z,26.83
2023-03-10T01:59:54.281Z,26.20
2023-03-10T02:02:21.952Z,28.22
2023-03-10T02:04:52.321Z,25.67
2023-03-10T02:07:27.955Z,25.92
2023-03-10T02:09:57.009Z,25.29
2023-03-10T02:12:23.825Z,22.86
2023-03-10T02:14:53.091Z,24.15
2023-03-10T02:17:23.274Z,23.20
2023-03-10T02:19:56.159Z,23.03
2023-03-10T02:22:23.076Z,23.65
2023-03-10T02:24:57.148Z,24.60
2023-03-10T02:27:27.321Z,25.43
2023-03-10T02:30:06.604Z,26.10
2023-03-10T02:32:39.764Z,27.14
2023-03-10T02:35:07.097Z,26.36
2023-03-10T02:37:39.993Z,24.71
2023-03-10T02:40:44.582Z,26.19
2023-03-10T02:43:18.112Z,23.41
2023-03-10T02:45:47.730Z,24.37
2023-03-10T02:48:33.524Z,23.45
2023-03-10T02:51:04.587Z,26.42
2023-03-10T02:53:32.465Z,26.40
2023-03-10T02:56:00.165Z,26.87
2023-03-10T02:58:31.342Z,26.62
2023-03-10T03:00:58.987Z,27.65
2023-03-10T03:03:26.591Z,27.69
2023-03-10T03:05:53.903Z,26.50
2023-03-10T03:08:21.496Z,24.30
2023-03-10T03:10:48.493Z,26.78
2023-03-10T03:13:15.822Z,23.58
2023-03-10T03:15:43.019Z,23.23
2023-03-10T03:18:11.506Z,23.36
2023-03-10T03:20:41.598Z,23.97
2023-03-10T03:23:10.466Z,23.02
2023-03-10T03:25:41.798Z,23.94
2023-03-10T03:28:12.751Z,27.53
2023-03-10T03:30:41.627Z,26.50
2023-03-10T03:33:08.798Z,25.17
2023-03-10T03:35:38.210Z,24.19
2023-03-10T03:38:06.992Z,23.67
2023-03-10T03:40:35.839Z,25.41
2023-03-10T03:43:04.674Z,24.73
2023-03-10T03:45:33.196Z,27.92
2023-03-10T03:48:01.294Z,27.42
2023-03-10T03:50:30.973Z,30.01
2023-03-10T03:53:03.693Z,27.08
2023-03-10T03:55:30.874Z,27.58
2023-03-10T03:57:58.411Z,30.02
2023-03-10T04:00:25.706Z,29.69
2023-03-10T04:03:00.188Z,27.50
2023-03-10T04:05:28.257Z,25.75
2023-03-10T04:07:55.128Z,30.72
2023-03-10T04:10:27.210Z,29.25
2023-03-10T04:12:54.414Z,24.95
2023-03-10T04:15:22.482Z,24.53
2023-03-10T04:17:49.451Z,23.77
2023-03-10T04:20:16.869Z,23.00
2023-03-10T04:22:46.664Z,28.39
2023-03-10T04:25:14.032Z,28.58
2023-03-10T04:27:41.234Z,30.42
2023-03-10T04:30:12.269Z,28.81
2023-03-10T04:32:41.180Z,28.38
2023-03-10T04:35:12.220Z,29.51
2023-03-10T04:37:39.428Z,27.44
2023-03-10T04:40:09.461Z,27.27
2023-03-10T04:42:36.602Z,29.25
2023-03-10T04:45:04.641Z,25.14
2023-03-10T04:47:31.672Z,30.48
2023-03-10T04:50:00.096Z,28.63
2023-03-10T04:52:27.522Z,26.55
2023-03-10T04:54:54.559Z,28.67
2023-03-10T04:57:21.673Z,25.41
2023-03-10T04:59:48.403Z,24.80
2023-03-10T05:02:15.323Z,27.18
2023-03-10T05:04:42.916Z,30.70
2023-03-10T05:07:10.101Z,23.00
2023-03-10T05:09:42.863Z,25.70
2023-03-10T05:12:10.515Z,26.56
2023-03-10T05:14:38.322Z,28.56
2023-03-10T05:17:06.864Z,28.69
2023-03-10T05:19:35.440Z,32.08
2023-03-10T05:22:05.118Z,26.55
2023-03-10T05:24:34.234Z,29.21
2023-03-10T05:27:02.652Z,28.77
2023-03-10T05:29:30.547Z,28.12
2023-03-10T05:32:04.232Z,24.47
2023-03-10T05:34:35.963Z,25.17
2023-03-10T05:37:03.738Z,25.69
2023-03-10T05:39:30.568Z,28.24
2023-03-10T05:42:00.470Z,27.31
2023-03-10T05:44:30.924Z,26.74
2023-03-10T05:46:59.091Z,26.23
2023-03-10T05:49:25.924Z,27.71
2023-03-10T05:51:53.433Z,27.73
2023-03-10T05:54:20.776Z,27.33
2023-03-10T05:56:48.030Z,27.42
2023-03-10T05:59:14.829Z,25.86
2023-03-10T06:01:42.066Z,29.03
2023-03-10T06:04:08.857Z,29.01
2023-03-10T06:06:35.848Z,26.01
2023-03-10T06:09:03.777Z,27.73
2023-03-10T06:11:30.513Z,24.86
2023-03-10T06:13:57.261Z,24.96
2023-03-10T06:16:24.108Z,24.68
2023-03-10T06:18:55.963Z,23.55
2023-03-10T06:21:23.632Z,24.47
2023-03-10T06:23:51.110Z,23.83
2023-03-10T06:26:18.245Z,26.56
2023-03-10T06:28:46.516Z,24.99
2023-03-10T06:31:17.722Z,24.79
2023-03-10T06:33:45.183Z,23.50
2023-03-10T06:36:13.716Z,24.65
2023-03-10T06:38:40.936Z,22.86
2023-03-10T06:41:08.969Z,24.66
2023-03-10T06:43:36.384Z,26.18
2023-03-10T06:46:05.797Z,25.28
2023-03-10T06:48:33.127Z,22.61
2023-03-10T06:51:00.405Z,24.59
2023-03-10T06:53:28.431Z,23.12
2023-03-10T06:56:03.161Z,23.60
2023-03-10T06:58:31.099Z,23.04
2023-03-10T07:00:58.866Z,26.83
2023-03-10T07:03:26.447Z,27.32
2023-03-10T07:05:53.731Z,25.62
2023-03-10T07:08:20.928Z,26.13
2023-03-10T07:10:47.782Z,23.71
2023-03-10T07:13:16.388Z,25.14
2023-03-10T07:15:46.551Z,25.67
2023-03-10T07:18:15.031Z,26.08
2023-03-10T07:20:45.159Z,22.87
2023-03-10T07:23:13.908Z,22.81
2023-03-10T07:25:40.879Z,24.90
2023-03-10T07:28:08.680Z,25.00
2023-03-10T07:30:35.618Z,24.60
2023-03-10T07:33:02.384Z,27.00
2023-03-10T07:35:29.208Z,27.28
2023-03-10T07:37:55.924Z,25.93
2023-03-10T07:40:25.011Z,25.39
2023-03-10T07:42:54.611Z,26.94
2023-03-10T07:45:26.197Z,26.81
2023-03-10T07:47:54.366Z,28.90
2023-03-10T07:50:21.946Z,26.98
2023-03-10T07:52:49.126Z,29.14
2023-03-10T07:55:16.036Z,26.40
2023-03-10T07:57:43.300Z,28.51
2023-03-10T08:00:11.557Z,29.66
2023-03-10T08:02:41.944Z,27.98
2023-03-10T08:05:10.356Z,27.99
2023-03-10T08:07:38.137Z,26.02
2023-03-10T08:10:05.594Z,25.37
2023-03-10T08:12:32.815Z,28.07
2023-03-10T08:15:00.156Z,26.24
2023-03-10T08:17:31.021Z,26.77
2023-03-10T08:19:59.465Z,25.78
2023-03-10T08:22:27.242Z,25.15
2023-03-10T08:24:54.349Z,24.83
2023-03-10T08:27:21.717Z,26.37
2023-03-10T08:29:48.741Z,22.36
2023-03-10T08:32:15.913Z,23.70
2023-03-10T08:34:43.524Z,24.28
2023-03-10T08:37:10.735Z,22.43
2023-03-10T08:39:37.928Z,24.65
2023-03-10T08:42:04.788Z,23.54
2023-03-10T08:44:31.863Z,25.85
2023-03-10T08:46:58.816Z,24.00
2023-03-10T08:49:25.645Z,24.48
2023-03-10T08:51:52.689Z,22.75
2023-03-10T08:54:21.554Z,23.01
2023-03-10T08:56:49.393Z,22.11
2023-03-10T08:59:16.617Z,23.05
2023-03-10T09:01:43.938Z,24.32
2023-03-10T09:04:11.117Z,23.68
2023-03-10T09:06:38.697Z,22.93
2023-03-10T09:09:08.038Z,23.18
2023-03-10T09:11:38.964Z,22.90
2023-03-10T09:14:08.262Z,24.17
2023-03-10T09:16:37.824Z,23.19
2023-03-10T09:19:05.026Z,21.49
2023-03-10T09:21:33.749Z,22.92
2023-03-10T09:24:02.627Z,21.86
2023-03-10T09:26:30.775Z,21.71
2023-03-10T09:28:58.016Z,21.01
2023-03-10T09:31:30.607Z,21.94
2023-03-10T09:33:57.494Z,20.57
2023-03-10T09:36:24.399Z,21.57
2023-03-10T09:38:51.232Z,20.48
2023-03-10T09:41:55.849Z,20.41
2023-03-10T09:44:50.476Z,19.74
2023-03-10T09:47:35.839Z,19.67
2023-03-10T09:50:32.934Z,18.97
2023-03-10T09:53:07.322Z,17.29
2023-03-10T09:55:47.461Z,19.23
2023-03-10T09:58:53.901Z,17.96
2023-03-10T10:01:23.784Z,17.56
2023-03-10T10:03:58.185Z,19.06
2023-03-10T10:06:33.026Z,18.29
2023-03-10T10:09:05.542Z,18.70
2023-03-10T10:11:34.816Z,18.94
2023-03-10T10:14:22.395Z,19.39
2023-03-10T10:16:56.325Z,18.73
2023-03-10T10:19:25.872Z,21.22
2023-03-10T10:22:02.191Z,19.08
2023-03-10T10:24:29.985Z,18.52
2023-03-10T10:26:57.296Z,18.59
2023-03-10T10:29:26.932Z,18.92
2023-03-10T10:32:19.221Z,19.22
2023-03-10T10:34:49.258Z,21.80
2023-03-10T10:37:24.338Z,20.46
2023-03-10T10:39:52.600Z,20.27
2023-03-10T10:42:26.890Z,22.83
2023-03-10T10:45:23.309Z,22.10
2023-03-10T10:47:52.030Z,27.90
2023-03-10T10:50:33.096Z,28.10
2023-03-10T10:53:27.069Z,27.93
2023-03-10T10:56:15.111Z,34.48
2023-03-10T10:58:44.158Z,33.70
2023-03-10T11:01:15.297Z,32.07
2023-03-10T11:03:48.928Z,32.05
2023-03-10T11:06:27.827Z,30.42
2023-03-10T11:09:18.453Z,29.04
2023-03-10T11:12:02.704Z,27.52
2023-03-10T11:14:52.435Z,29.15
2023-03-10T11:17:47.712Z,28.81
2023-03-10T11:20:41.968Z,30.24
2023-03-10T11:23:50.081Z,27.67
2023-03-10T11:26:45.470Z,28.13
2023-03-10T11:29:30.809Z,24.64
2023-03-10T11:32:25.800Z,27.22
2023-03-10T11:34:56.748Z,27.78
2023-03-10T11:37:41.545Z,28.10
2023-03-10T11:40:35.947Z,25.04
2023-03-10T11:43:27.115Z,23.29
2023-03-10T11:45:57.059Z,24.01
2023-03-10T11:48:54.903Z,23.62
2023-03-10T11:51:32.897Z,25.52
2023-03-10T11:54:04.796Z,25.30
2023-03-10T11:56:32.193Z,23.42
2023-03-10T11:59:18.332Z,24.57
2023-03-10T12:01:54.027Z,23.24
2023-03-10T12:04:39.394Z,22.77
2023-03-10T12:07:15.953Z,23.25
2023-03-10T12:09:54.353Z,24.70
2023-03-10T12:12:29.435Z,19.51
2023-03-10T12:14:59.416Z,21.82
2023-03-10T12:17:27.460Z,21.50
2023-03-10T12:20:16.336Z,21.54
2023-03-10T12:23:01.324Z,20.46
2023-03-10T12:25:29.096Z,20.44
2023-03-10T12:28:17.455Z,17.93
2023-03-10T12:31:32.561Z,22.33
2023-03-10T12:34:17.696Z,18.85
2023-03-10T12:36:47.387Z,19.10
2023-03-10T12:39:40.143Z,20.50
2023-03-10T12:42:29.335Z,21.29
2023-03-10T12:45:18.554Z,21.98
2023-03-10T12:47:56.749Z,19.57
2023-03-10T12:50:48.709Z,19.57
2023-03-10T12:53:43.730Z,18.78
2023-03-10T12:56:13.450Z,20.53
2023-03-10T12:58:48.792Z,20.44
2023-03-10T13:01:20.867Z,18.90
2023-03-10T13:03:54.128Z,19.92
2023-03-10T13:06:28.312Z,20.96
2023-03-10T13:08:56.445Z,23.83
2023-03-10T13:11:23.592Z,20.60
2023-03-10T13:13:53.957Z,20.38
2023-03-10T13:16:21.481Z,19.33
2023-03-10T13:18:50.103Z,20.94
2023-03-10T13:21:24.915Z,22.71
2023-03-10T13:23:51.893Z,20.05
2023-03-10T13:26:19.574Z,21.34
2023-03-10T13:29:03.094Z,21.52
2023-03-10T13:31:34.233Z,21.84
2023-03-10T13:34:20.306Z,18.93
2023-03-10T13:36:49.062Z,20.57
2023-03-10T13:39:27.739Z,21.40
2023-03-10T13:41:58.528Z,23.79
2023-03-10T13:44:28.916Z,23.22
2023-03-10T13:47:01.026Z,23.18
2023-03-10T13:49:33.221Z,23.95
2023-03-10T13:52:04.125Z,23.36
2023-03-10T13:54:35.415Z,24.15
2023-03-10T13:57:26.235Z,26.93
2023-03-10T13:59:54.925Z,25.41
2023-03-10T14:02:32.434Z,24.24
2023-03-10T14:05:06.246Z,24.44
2023-03-10T14:07:36.072Z,22.64
2023-03-10T14:10:05.933Z,22.79
2023-03-10T14:12:45.035Z,25.49
2023-03-10T14:15:14.785Z,24.10
2023-03-10T14:17:47.548Z,24.13
2023-03-10T14:20:32.522Z,22.28
2023-03-10T14:23:00.656Z,25.75
2023-03-10T14:25:27.823Z,23.21
2023-03-10T14:28:06.728Z,22.30
2023-03-10T14:30:35.079Z,22.41
2023-03-10T14:33:02.499Z,20.68
2023-03-10T14:35:29.867Z,23.49
2023-03-10T14:37:56.620Z,23.26
2023-03-10T14:40:24.964Z,22.18
2023-03-10T14:42:54.546Z,22.03
2023-03-10T14:45:34.279Z,23.96
2023-03-10T14:48:13.275Z,24.08
2023-03-10T14:50:40.655Z,24.08
2023-03-10T14:53:12.597Z,22.15
2023-03-10T14:55:41.857Z,25.65
2023-03-10T14:58:14.727Z,22.34
2023-03-10T15:00:41.576Z,23.56
2023-03-10T15:03:11.440Z,21.79
2023-03-10T15:05:48.283Z,24.43
2023-03-10T15:08:18.110Z,23.01
2023-03-10T15:10:50.932Z,24.81
2023-03-10T15:13:22.750Z,25.75
2023-03-10T15:15:50.898Z,27.13
2023-03-10T15:18:20.720Z,26.24
2023-03-10T15:20:48.309Z,27.11
2023-03-10T15:23:19.857Z,25.83
2023-03-10T15:25:47.324Z,25.54
2023-03-10T15:28:15.242Z,30.28
2023-03-10T15:30:42.172Z,26.43
2023-03-10T15:33:10.795Z,29.98
2023-03-10T15:35:38.831Z,29.93
2023-03-10T15:38:05.989Z,30.84
2023-03-10T15:40:34.727Z,29.94
2023-03-10T15:43:01.942Z,29.14
2023-03-10T15:45:31.450Z,31.07
2023-03-10T15:47:59.136Z,29.47
2023-03-10T15:50:26.615Z,31.23
2023-03-10T15:52:55.626Z,29.82
2023-03-10T15:55:23.927Z,30.43
2023-03-10T15:57:52.156Z,30.26
2023-03-10T16:00:21.820Z,30.71
2023-03-10T16:02:49.975Z,32.17
2023-03-10T16:05:17.206Z,32.58
2023-03-10T16:07:44.257Z,30.90
2023-03-10T16:10:16.718Z,28.99
2023-03-10T16:12:43.580Z,28.82
2023-03-10T16:15:11.340Z,28.82
2023-03-10T16:17:38.395Z,29.79
2023-03-10T16:20:11.928Z,30.38
2023-03-10T16:22:43.072Z,26.84
2023-03-10T16:25:17.953Z,27.73
2023-03-10T16:27:46.531Z,27.18
2023-03-10T16:30:15.756Z,28.19
2023-03-10T16:32:47.800Z,28.44
2023-03-10T16:35:15.564Z,28.21
2023-03-10T16:37:42.788Z,29.12
2023-03-10T16:40:10.323Z,26.79
2023-03-10T16:42:37.177Z,29.20
2023-03-10T16:45:06.489Z,30.50
2023-03-10T16:47:34.330Z,29.06
2023-03-10T16:50:01.814Z,29.11
2023-03-10T16:52:28.644Z,28.46
2023-03-10T16:55:01.421Z,28.96
2023-03-10T16:57:28.322Z,29.41
2023-03-10T16:59:55.303Z,31.02
2023-03-10T17:02:22.135Z,30.45
2023-03-10T17:04:49.557Z,32.36
2023-03-10T17:07:17.059Z,34.25
2023-03-10T17:09:45.867Z,35.03
2023-03-10T17:12:12.564Z,36.12
2023-03-10T17:14:39.311Z,34.43
2023-03-10T17:17:08.076Z,32.17
2023-03-10T17:19:37.010Z,32.48
2023-03-10T17:22:04.028Z,32.19
2023-03-10T17:24:31.484Z,31.70
2023-03-10T17:26:58.355Z,32.19
2023-03-10T17:29:25.089Z,31.60
2023-03-10T17:31:52.785Z,31.17
2023-03-10T17:34:21.351Z,31.75
2023-03-10T17:36:52.412Z,29.33
2023-03-10T17:39:22.689Z,30.80
2023-03-10T17:41:51.336Z,30.55
2023-03-10T17:44:19.982Z,28.85
2023-03-10T17:46:47.877Z,29.00
2023-03-10T17:49:15.612Z,29.85
2023-03-10T17:51:44.404Z,28.88
2023-03-10T17:54:14.285Z,29.31
2023-03-10T17:56:41.537Z,28.66
2023-03-10T17:59:10.714Z,29.26
2023-03-10T18:01:37.655Z,30.17
2023-03-10T18:04:05.256Z,27.06
2023-03-10T18:06:36.380Z,28.59
2023-03-10T18:09:09.369Z,29.47
2023-03-10T18:11:37.850Z,28.54
2023-03-10T18:14:06.781Z,27.45
2023-03-10T18:16:37.984Z,28.14
2023-03-10T18:19:10.504Z,27.59
2023-03-10T18:21:38.750Z,26.40
2023-03-10T18:24:08.312Z,26.05
2023-03-10T18:26:37.411Z,27.60
2023-03-10T18:29:06.660Z,25.89
2023-03-10T18:31:34.510Z,26.34
2023-03-10T18:34:03.486Z,27.20
2023-03-10T18:36:30.831Z,26.15
2023-03-10T18:38:58.172Z,25.07
2023-03-10T18:41:27.653Z,25.93
2023-03-10T18:43:54.380Z,26.11
2023-03-10T18:46:23.486Z,26.64
2023-03-10T18:48:55.626Z,26.43
2023-03-10T18:51:27.881Z,26.08
2023-03-10T18:53:55.123Z,26.83
2023-03-10T18:56:26.208Z,26.61
2023-03-10T18:58:53.781Z,26.76
2023-03-10T19:01:22.505Z,25.84
2023-03-10T19:03:49.407Z,27.09
2023-03-10T19:06:16.426Z,31.73
2023-03-10T19:08:44.258Z,33.16
2023-03-10T19:11:11.305Z,32.79
2023-03-10T19:13:40.677Z,28.13
2023-03-10T19:16:09.781Z,31.13
2023-03-10T19:18:38.809Z,29.03
2023-03-10T19:21:07.307Z,29.40
2023-03-10T19:23:35.032Z,30.33
2023-03-10T19:26:03.598Z,30.03
2023-03-10T19:28:31.410Z,29.80
2023-03-10T19:30:58.305Z,30.15
2023-03-10T19:33:25.141Z,28.84
2023-03-10T19:36:10.637Z,28.80
2023-03-10T19:38:40.948Z,28.31
2023-03-10T19:41:16.763Z,27.51
2023-03-10T19:43:54.667Z,29.64
2023-03-10T19:46:22.422Z,28.97
2023-03-10T19:48:49.168Z,31.02
2023-03-10T19:51:23.389Z,27.06
2023-03-10T19:53:53.535Z,29.77
2023-03-10T19:56:22.676Z,31.51
2023-03-10T19:58:50.105Z,30.07
2023-03-10T20:01:24.444Z,30.25
2023-03-10T20:03:54.083Z,30.93
2023-03-10T20:06:21.249Z,31.25
2023-03-10T20:08:48.234Z,29.37
2023-03-10T20:11:14.998Z,31.89
2023-03-10T20:13:43.292Z,31.59
2023-03-10T20:16:12.742Z,31.23
2023-03-10T20:18:40.326Z,33.02
2023-03-10T20:21:09.035Z,30.93
2023-03-10T20:23:35.950Z,30.08
2023-03-10T20:26:07.835Z,32.48
2023-03-10T20:28:37.045Z,29.55
2023-03-10T20:31:04.622Z,29.18
2023-03-10T20:33:32.024Z,32.35
2023-03-10T20:35:58.794Z,32.04
2023-03-10T20:38:25.662Z,31.20
2023-03-10T20:40:53.244Z,29.25
2023-03-10T20:43:20.137Z,29.72
2023-03-10T20:45:50.376Z,30.16
2023-03-10T20:48:17.403Z,30.74
2023-03-10T20:50:44.247Z,29.79
2023-03-10T20:53:10.930Z,28.13
2023-03-10T20:55:41.221Z,29.18
2023-03-10T20:58:09.521Z,28.91
2023-03-10T21:00:36.302Z,29.18
2023-03-10T21:03:03.806Z,26.12
2023-03-10T21:05:30.737Z,28.57
2023-03-10T21:07:58.313Z,28.32
2023-03-10T21:10:27.854Z,28.33
2023-03-10T21:12:54.826Z,27.19
2023-03-10T21:15:22.514Z,26.00
2023-03-10T21:17:50.265Z,27.40
2023-03-10T21:20:21.150Z,27.40
2023-03-10T21:22:51.050Z,25.75
2023-03-10T21:25:24.678Z,28.25
2023-03-10T21:27:58.690Z,28.28
2023-03-10T21:30:29.266Z,28.06
2023-03-10T21:32:57.445Z,27.32
2023-03-10T21:35:25.884Z,27.01
2023-03-10T21:37:52.806Z,29.14
2023-03-10T21:40:20.448Z,27.82
2023-03-10T21:42:48.320Z,28.55
2023-03-10T21:45:18.195Z,28.32
2023-03-10T21:47:45.767Z,28.67
2023-03-10T21:50:13.880Z,28.70
2023-03-10T21:52:41.677Z,29.43
2023-03-10T21:55:13.672Z,28.42
2023-03-10T21:57:40.604Z,32.84
2023-03-10T22:00:10.045Z,33.32
2023-03-10T22:02:38.049Z,35.15
2023-03-10T22:05:06.297Z,35.45
2023-03-10T22:07:33.427Z,31.38
2023-03-10T22:10:00.158Z,30.72
2023-03-10T22:12:26.894Z,32.56
2023-03-10T22:14:57.597Z,33.22
2023-03-10T22:17:26.256Z,35.41
2023-03-10T22:19:57.148Z,36.92
2023-03-10T22:22:25.340Z,34.19
2023-03-10T22:24:54.432Z,34.88
2023-03-10T22:27:21.183Z,33.70
2023-03-10T22:29:48.098Z,33.93
2023-03-10T22:32:15.033Z,31.69
2023-03-10T22:34:42.247Z,32.80
2023-03-10T22:37:10.371Z,32.15
2023-03-10T22:39:40.444Z,34.13
2023-03-10T22:42:07.276Z,32.86
2023-03-10T22:44:38.349Z,32.37
2023-03-10T22:47:06.057Z,33.60
2023-03-10T22:49:32.848Z,30.72
2023-03-10T22:51:59.733Z,33.40
2023-03-10T22:54:26.604Z,31.46
2023-03-10T22:56:53.566Z,30.44
2023-03-10T22:59:20.486Z,30.60
2023-03-10T23:01:47.531Z,29.34
2023-03-10T23:04:14.600Z,30.47
2023-03-10T23:06:41.749Z,32.02
2023-03-10T23:09:10.755Z,31.61
2023-03-10T23:11:38.365Z,30.21
2023-03-10T23:14:05.532Z,32.19
2023-03-10T23:16:36.735Z,29.99
2023-03-10T23:19:07.245Z,30.63
2023-03-10T23:21:36.459Z,31.30
2023-03-10T23:24:03.612Z,28.81
2023-03-10T23:26:31.492Z,30.08
2023-03-10T23:28:58.202Z,28.45
2023-03-10T23:31:26.417Z,31.44
2023-03-10T23:33:53.444Z,32.93
2023-03-10T23:36:20.516Z,31.92
2023-03-10T23:38:47.289Z,30.59
2023-03-10T23:41:14.032Z,29.96
2023-03-10T23:43:41.140Z,31.72
2023-03-10T23:46:09.307Z,31.01
2023-03-10T23:48:36.586Z,28.30
2023-03-10T23:51:04.154Z,29.55
2023-03-10T23:53:31.044Z,29.79
2023-03-10T23:56:00.056Z,29.90
2023-03-10T23:58:28.037Z,28.88
